sensor_id;sensor_type;location;lat;lon;timestamp;P1;durP1;ratioP1;P2;durP2;ratioP2
11303;SDS011;5707;49.588;12.148;2023-04-15T00:00:24;3.20;;;3.00;;
11303;SDS011;5707;49.588;12.148;2023-04-15T00:02:49;2.80;;;2.60;;
11303;SDS011;5707;49.588;12.148;2023-04-15T00:05:15;2.85;;;2.75;;
11303;SDS011;5707;49.588;12.148;2023-04-15T00:07:41;6.20;;;2.88;;
11303;SDS011;5707;49.588;12.148;2023-04-15T00:10:06;3.03;;;2.83;;
11303;SDS011;5707;49.588;12.148;2023-04-15T00:12:33;2.65;;;2.55;;
11303;SDS011;5707;49.588;12.148;2023-04-15T00:14:58;2.90;;;2.80;;
11303;SDS011;5707;49.588;12.148;2023-04-15T00:17:24;3.22;;;3.08;;
11303;SDS011;5707;49.588;12.148;2023-04-15T00:19:49;3.33;;;3.03;;
11303;SDS011;5707;49.588;12.148;2023-04-15T00:22:15;2.95;;;2.75;;
11303;SDS011;5707;49.588;12.148;2023-04-15T00:24:42;2.67;;;2.58;;
11303;SDS011;5707;49.588;12.148;2023-04-15T00:27:07;2.83;;;2.63;;
11303;SDS011;5707;49.588;12.148;2023-04-15T00:29:33;2.50;;;2.40;;
11303;SDS011;5707;49.588;12.148;2023-04-15T00:31:59;2.65;;;2.55;;
11303;SDS011;5707;49.588;12.148;2023-04-15T00:34:25;2.40;;;2.30;;
11303;SDS011;5707;49.588;12.148;2023-04-15T00:36:51;2.53;;;2.38;;
11303;SDS011;5707;49.588;12.148;2023-04-15T00:39:17;2.70;;;2.60;;
11303;SDS011;5707;49.588;12.148;2023-04-15T00:41:43;2.45;;;2.25;;
11303;SDS011;5707;49.588;12.148;2023-04-15T00:44:10;2.38;;;2.28;;
11303;SDS011;5707;49.588;12.148;2023-04-15T00:46:36;2.50;;;2.40;;
11303;SDS011;5707;49.588;12.148;2023-04-15T00:49:03;2.50;;;2.30;;
11303;SDS011;5707;49.588;12.148;2023-04-15T00:51:30;2.40;;;2.30;;
11303;SDS011;5707;49.588;12.148;2023-04-15T00:53:57;2.40;;;2.30;;
11303;SDS011;5707;49.588;12.148;2023-04-15T00:56:30;2.28;;;2.17;;
11303;SDS011;5707;49.588;12.148;2023-04-15T00:58:59;2.45;;;2.35;;
11303;SDS011;5707;49.588;12.148;2023-04-15T01:01:26;2.33;;;2.13;;
11303;SDS011;5707;49.588;12.148;2023-04-15T01:03:53;2.53;;;2.42;;
11303;SDS011;5707;49.588;12.148;2023-04-15T01:06:20;2.45;;;2.35;;
11303;SDS011;5707;49.588;12.148;2023-04-15T01:08:46;2.47;;;2.38;;
11303;SDS011;5707;49.588;12.148;2023-04-15T01:11:12;2.53;;;2.33;;
11303;SDS011;5707;49.588;12.148;2023-04-15T01:13:38;2.35;;;2.25;;
11303;SDS011;5707;49.588;12.148;2023-04-15T01:16:04;2.85;;;2.72;;
11303;SDS011;5707;49.588;12.148;2023-04-15T01:18:31;2.53;;;2.42;;
11303;SDS011;5707;49.588;12.148;2023-04-15T01:20:57;2.72;;;2.53;;
11303;SDS011;5707;49.588;12.148;2023-04-15T01:23:26;2.70;;;2.60;;
11303;SDS011;5707;49.588;12.148;2023-04-15T01:25:52;2.50;;;2.40;;
11303;SDS011;5707;49.588;12.148;2023-04-15T01:28:18;2.78;;;2.58;;
11303;SDS011;5707;49.588;12.148;2023-04-15T01:30:44;2.78;;;2.60;;
11303;SDS011;5707;49.588;12.148;2023-04-15T01:33:10;2.50;;;2.30;;
11303;SDS011;5707;49.588;12.148;2023-04-15T01:35:36;2.90;;;2.70;;
11303;SDS011;5707;49.588;12.148;2023-04-15T01:38:04;2.47;;;2.38;;
11303;SDS011;5707;49.588;12.148;2023-04-15T01:40:31;2.53;;;2.42;;
11303;SDS011;5707;49.588;12.148;2023-04-15T01:42:57;2.75;;;2.63;;
11303;SDS011;5707;49.588;12.148;2023-04-15T01:45:23;2.60;;;2.40;;
11303;SDS011;5707;49.588;12.148;2023-04-15T01:47:49;2.35;;;2.25;;
11303;SDS011;5707;49.588;12.148;2023-04-15T01:50:14;2.25;;;2.15;;
11303;SDS011;5707;49.588;12.148;2023-04-15T01:52:40;2.20;;;2.10;;
11303;SDS011;5707;49.588;12.148;2023-04-15T01:55:06;2.63;;;2.42;;
11303;SDS011;5707;49.588;12.148;2023-04-15T01:57:33;2.70;;;2.50;;
11303;SDS011;5707;49.588;12.148;2023-04-15T01:59:59;2.58;;;2.47;;
11303;SDS011;5707;49.588;12.148;2023-04-15T02:02:24;3.10;;;2.90;;
11303;SDS011;5707;49.588;12.148;2023-04-15T02:04:50;2.80;;;2.60;;
11303;SDS011;5707;49.588;12.148;2023-04-15T02:07:16;2.85;;;2.75;;
11303;SDS011;5707;49.588;12.148;2023-04-15T02:09:41;2.47;;;2.38;;
11303;SDS011;5707;49.588;12.148;2023-04-15T02:12:07;2.60;;;2.40;;
11303;SDS011;5707;49.588;12.148;2023-04-15T02:14:33;2.80;;;2.60;;
11303;SDS011;5707;49.588;12.148;2023-04-15T02:16:59;3.20;;;3.00;;
11303;SDS011;5707;49.588;12.148;2023-04-15T02:19:31;2.50;;;2.40;;
11303;SDS011;5707;49.588;12.148;2023-04-15T02:21:57;2.63;;;2.42;;
11303;SDS011;5707;49.588;12.148;2023-04-15T02:24:23;2.63;;;2.53;;
11303;SDS011;5707;49.588;12.148;2023-04-15T02:26:49;2.50;;;2.40;;
11303;SDS011;5707;49.588;12.148;2023-04-15T02:29:15;2.42;;;2.25;;
11303;SDS011;5707;49.588;12.148;2023-04-15T02:31:40;2.90;;;2.70;;
11303;SDS011;5707;49.588;12.148;2023-04-15T02:34:06;2.17;;;2.08;;
11303;SDS011;5707;49.588;12.148;2023-04-15T02:36:32;2.33;;;2.22;;
11303;SDS011;5707;49.588;12.148;2023-04-15T02:38:58;2.40;;;2.30;;
11303;SDS011;5707;49.588;12.148;2023-04-15T02:41:24;3.00;;;2.78;;
11303;SDS011;5707;49.588;12.148;2023-04-15T02:43:51;2.30;;;2.20;;
11303;SDS011;5707;49.588;12.148;2023-04-15T02:46:17;2.42;;;2.33;;
11303;SDS011;5707;49.588;12.148;2023-04-15T02:48:43;2.20;;;2.10;;
11303;SDS011;5707;49.588;12.148;2023-04-15T02:51:14;2.30;;;2.20;;
11303;SDS011;5707;49.588;12.148;2023-04-15T02:53:43;2.38;;;2.28;;
11303;SDS011;5707;49.588;12.148;2023-04-15T02:56:09;2.08;;;1.98;;
11303;SDS011;5707;49.588;12.148;2023-04-15T02:58:35;2.00;;;1.90;;
11303;SDS011;5707;49.588;12.148;2023-04-15T03:01:01;2.00;;;1.90;;
11303;SDS011;5707;49.588;12.148;2023-04-15T03:03:27;2.28;;;2.17;;
11303;SDS011;5707;49.588;12.148;2023-04-15T03:05:52;2.50;;;2.40;;
11303;SDS011;5707;49.588;12.148;2023-04-15T03:08:18;2.38;;;2.20;;
11303;SDS011;5707;49.588;12.148;2023-04-15T03:10:45;1.88;;;1.77;;
11303;SDS011;5707;49.588;12.148;2023-04-15T03:13:11;2.58;;;2.35;;
11303;SDS011;5707;49.588;12.148;2023-04-15T03:15:37;3.03;;;2.00;;
11303;SDS011;5707;49.588;12.148;2023-04-15T03:18:02;2.53;;;2.33;;
11303;SDS011;5707;49.588;12.148;2023-04-15T03:20:28;2.67;;;2.47;;
11303;SDS011;5707;49.588;12.148;2023-04-15T03:22:53;2.17;;;2.08;;
11303;SDS011;5707;49.588;12.148;2023-04-15T03:25:19;2.30;;;2.10;;
11303;SDS011;5707;49.588;12.148;2023-04-15T03:27:44;2.50;;;2.30;;
11303;SDS011;5707;49.588;12.148;2023-04-15T03:30:10;2.05;;;1.95;;
11303;SDS011;5707;49.588;12.148;2023-04-15T03:32:36;2.10;;;2.00;;
11303;SDS011;5707;49.588;12.148;2023-04-15T03:35:02;2.40;;;2.30;;
11303;SDS011;5707;49.588;12.148;2023-04-15T03:37:27;2.20;;;2.10;;
11303;SDS011;5707;49.588;12.148;2023-04-15T03:39:53;2.25;;;2.15;;
11303;SDS011;5707;49.588;12.148;2023-04-15T03:42:18;2.60;;;2.47;;
11303;SDS011;5707;49.588;12.148;2023-04-15T03:44:44;2.38;;;2.28;;
11303;SDS011;5707;49.588;12.148;2023-04-15T03:47:09;2.50;;;2.30;;
11303;SDS011;5707;49.588;12.148;2023-04-15T03:49:35;3.13;;;2.95;;
11303;SDS011;5707;49.588;12.148;2023-04-15T03:52:01;2.35;;;2.15;;
11303;SDS011;5707;49.588;12.148;2023-04-15T03:54:27;2.60;;;2.50;;
11303;SDS011;5707;49.588;12.148;2023-04-15T03:56:52;2.10;;;2.00;;
11303;SDS011;5707;49.588;12.148;2023-04-15T03:59:18;2.40;;;2.30;;
11303;SDS011;5707;49.588;12.148;2023-04-15T04:01:43;2.28;;;2.17;;
11303;SDS011;5707;49.588;12.148;2023-04-15T04:04:09;2.40;;;2.30;;
11303;SDS011;5707;49.588;12.148;2023-04-15T04:06:34;2.50;;;2.30;;
11303;SDS011;5707;49.588;12.148;2023-04-15T04:09:00;2.50;;;2.30;;
11303;SDS011;5707;49.588;12.148;2023-04-15T04:11:26;3.35;;;2.30;;
11303;SDS011;5707;49.588;12.148;2023-04-15T04:13:52;2.30;;;2.20;;
11303;SDS011;5707;49.588;12.148;2023-04-15T04:16:18;2.30;;;2.20;;
11303;SDS011;5707;49.588;12.148;2023-04-15T04:18:43;2.67;;;2.38;;
11303;SDS011;5707;49.588;12.148;2023-04-15T04:21:09;2.72;;;2.53;;
11303;SDS011;5707;49.588;12.148;2023-04-15T04:23:35;2.67;;;2.53;;
11303;SDS011;5707;49.588;12.148;2023-04-15T04:26:01;2.25;;;2.05;;
11303;SDS011;5707;49.588;12.148;2023-04-15T04:28:26;2.10;;;2.00;;
11303;SDS011;5707;49.588;12.148;2023-04-15T04:30:52;2.67;;;2.45;;
11303;SDS011;5707;49.588;12.148;2023-04-15T04:33:17;2.30;;;2.20;;
11303;SDS011;5707;49.588;12.148;2023-04-15T04:35:43;2.00;;;1.90;;
11303;SDS011;5707;49.588;12.148;2023-04-15T04:38:09;1.98;;;1.88;;
11303;SDS011;5707;49.588;12.148;2023-04-15T04:40:34;2.38;;;1.85;;
11303;SDS011;5707;49.588;12.148;2023-04-15T04:43:00;2.28;;;2.17;;
11303;SDS011;5707;49.588;12.148;2023-04-15T04:45:26;2.50;;;2.40;;
11303;SDS011;5707;49.588;12.148;2023-04-15T04:47:51;2.33;;;2.22;;
11303;SDS011;5707;49.588;12.148;2023-04-15T04:50:17;3.10;;;2.10;;
11303;SDS011;5707;49.588;12.148;2023-04-15T04:52:43;2.08;;;1.50;;
11303;SDS011;5707;49.588;12.148;2023-04-15T04:55:08;1.70;;;1.60;;
11303;SDS011;5707;49.588;12.148;2023-04-15T04:57:34;1.33;;;1.20;;
11303;SDS011;5707;49.588;12.148;2023-04-15T05:00:00;1.13;;;1.13;;
11303;SDS011;5707;49.588;12.148;2023-04-15T05:02:29;1.60;;;1.50;;
11303;SDS011;5707;49.588;12.148;2023-04-15T05:04:56;1.70;;;1.60;;
11303;SDS011;5707;49.588;12.148;2023-04-15T05:07:21;1.63;;;1.52;;
11303;SDS011;5707;49.588;12.148;2023-04-15T05:09:47;2.10;;;2.00;;
11303;SDS011;5707;49.588;12.148;2023-04-15T05:12:13;2.15;;;2.05;;
11303;SDS011;5707;49.588;12.148;2023-04-15T05:14:39;2.50;;;2.30;;
11303;SDS011;5707;49.588;12.148;2023-04-15T05:17:06;2.47;;;2.20;;
11303;SDS011;5707;49.588;12.148;2023-04-15T05:19:32;3.25;;;2.13;;
11303;SDS011;5707;49.588;12.148;2023-04-15T05:21:58;2.55;;;2.45;;
11303;SDS011;5707;49.588;12.148;2023-04-15T05:24:24;2.30;;;2.20;;
11303;SDS011;5707;49.588;12.148;2023-04-15T05:26:50;2.65;;;2.45;;
11303;SDS011;5707;49.588;12.148;2023-04-15T05:29:16;2.10;;;2.00;;
11303;SDS011;5707;49.588;12.148;2023-04-15T05:31:41;2.67;;;2.47;;
11303;SDS011;5707;49.588;12.148;2023-04-15T05:34:07;2.80;;;2.60;;
11303;SDS011;5707;49.588;12.148;2023-04-15T05:36:33;2.30;;;2.20;;
11303;SDS011;5707;49.588;12.148;2023-04-15T05:38:58;2.50;;;2.40;;
11303;SDS011;5707;49.588;12.148;2023-04-15T05:41:24;2.55;;;2.35;;
11303;SDS011;5707;49.588;12.148;2023-04-15T05:43:50;2.95;;;2.53;;
11303;SDS011;5707;49.588;12.148;2023-04-15T05:46:15;2.53;;;2.42;;
11303;SDS011;5707;49.588;12.148;2023-04-15T05:48:41;2.55;;;2.35;;
11303;SDS011;5707;49.588;12.148;2023-04-15T05:51:07;2.70;;;2.58;;
11303;SDS011;5707;49.588;12.148;2023-04-15T05:53:33;2.63;;;2.42;;
11303;SDS011;5707;49.588;12.148;2023-04-15T05:55:58;2.35;;;2.25;;
11303;SDS011;5707;49.588;12.148;2023-04-15T05:58:24;1.90;;;1.80;;
11303;SDS011;5707;49.588;12.148;2023-04-15T06:00:51;2.03;;;1.88;;
11303;SDS011;5707;49.588;12.148;2023-04-15T06:03:16;2.25;;;2.03;;
11303;SDS011;5707;49.588;12.148;2023-04-15T06:05:42;1.92;;;1.83;;
11303;SDS011;5707;49.588;12.148;2023-04-15T06:08:09;1.90;;;1.80;;
11303;SDS011;5707;49.588;12.148;2023-04-15T06:10:35;2.08;;;1.98;;
11303;SDS011;5707;49.588;12.148;2023-04-15T06:13:01;1.85;;;1.75;;
11303;SDS011;5707;49.588;12.148;2023-04-15T06:15:28;1.95;;;1.85;;
11303;SDS011;5707;49.588;12.148;2023-04-15T06:17:54;2.17;;;2.08;;
11303;SDS011;5707;49.588;12.148;2023-04-15T06:20:20;2.05;;;1.92;;
11303;SDS011;5707;49.588;12.148;2023-04-15T06:22:45;1.90;;;1.80;;
11303;SDS011;5707;49.588;12.148;2023-04-15T06:25:11;1.58;;;1.48;;
11303;SDS011;5707;49.588;12.148;2023-04-15T06:27:36;1.67;;;1.58;;
11303;SDS011;5707;49.588;12.148;2023-04-15T06:30:02;1.45;;;1.25;;
11303;SDS011;5707;49.588;12.148;2023-04-15T06:32:28;1.15;;;0.90;;
11303;SDS011;5707;49.588;12.148;2023-04-15T06:34:54;0.95;;;0.95;;
11303;SDS011;5707;49.588;12.148;2023-04-15T06:37:20;1.00;;;1.00;;
11303;SDS011;5707;49.588;12.148;2023-04-15T06:39:46;2.30;;;1.10;;
11303;SDS011;5707;49.588;12.148;2023-04-15T06:42:11;1.48;;;1.38;;
11303;SDS011;5707;49.588;12.148;2023-04-15T06:44:37;1.30;;;1.20;;
11303;SDS011;5707;49.588;12.148;2023-04-15T06:47:03;0.95;;;0.95;;
11303;SDS011;5707;49.588;12.148;2023-04-15T06:49:28;1.23;;;1.13;;
11303;SDS011;5707;49.588;12.148;2023-04-15T06:51:54;1.20;;;1.10;;
11303;SDS011;5707;49.588;12.148;2023-04-15T06:54:19;0.85;;;0.85;;
11303;SDS011;5707;49.588;12.148;2023-04-15T06:56:45;1.15;;;0.95;;
11303;SDS011;5707;49.588;12.148;2023-04-15T06:59:11;0.80;;;0.80;;
11303;SDS011;5707;49.588;12.148;2023-04-15T07:01:38;0.93;;;0.90;;
11303;SDS011;5707;49.588;12.148;2023-04-15T07:04:05;0.80;;;0.80;;
11303;SDS011;5707;49.588;12.148;2023-04-15T07:06:30;1.20;;;0.90;;
11303;SDS011;5707;49.588;12.148;2023-04-15T07:08:56;1.00;;;1.00;;
11303;SDS011;5707;49.588;12.148;2023-04-15T07:11:22;0.80;;;0.80;;
11303;SDS011;5707;49.588;12.148;2023-04-15T07:13:49;1.58;;;1.00;;
11303;SDS011;5707;49.588;12.148;2023-04-15T07:16:15;0.70;;;0.70;;
11303;SDS011;5707;49.588;12.148;2023-04-15T07:18:41;0.75;;;0.75;;
11303;SDS011;5707;49.588;12.148;2023-04-15T07:21:07;0.50;;;0.47;;
11303;SDS011;5707;49.588;12.148;2023-04-15T07:23:33;0.63;;;0.63;;
11303;SDS011;5707;49.588;12.148;2023-04-15T07:25:58;0.55;;;0.55;;
11303;SDS011;5707;49.588;12.148;2023-04-15T07:28:25;0.65;;;0.65;;
11303;SDS011;5707;49.588;12.148;2023-04-15T07:30:51;0.60;;;0.60;;
11303;SDS011;5707;49.588;12.148;2023-04-15T07:33:16;0.80;;;0.77;;
11303;SDS011;5707;49.588;12.148;2023-04-15T07:35:42;2.15;;;0.90;;
11303;SDS011;5707;49.588;12.148;2023-04-15T07:38:09;0.80;;;0.80;;
11303;SDS011;5707;49.588;12.148;2023-04-15T07:40:36;0.93;;;0.93;;
11303;SDS011;5707;49.588;12.148;2023-04-15T07:43:03;0.82;;;0.77;;
11303;SDS011;5707;49.588;12.148;2023-04-15T07:45:29;1.25;;;0.93;;
11303;SDS011;5707;49.588;12.148;2023-04-15T07:47:55;1.15;;;1.00;;
11303;SDS011;5707;49.588;12.148;2023-04-15T07:50:21;0.68;;;0.68;;
11303;SDS011;5707;49.588;12.148;2023-04-15T07:52:47;0.65;;;0.65;;
11303;SDS011;5707;49.588;12.148;2023-04-15T07:55:14;1.50;;;1.40;;
11303;SDS011;5707;49.588;12.148;2023-04-15T07:57:43;0.57;;;0.50;;
11303;SDS011;5707;49.588;12.148;2023-04-15T08:00:09;0.82;;;0.80;;
11303;SDS011;5707;49.588;12.148;2023-04-15T08:02:35;0.88;;;0.88;;
11303;SDS011;5707;49.588;12.148;2023-04-15T08:05:01;0.80;;;0.80;;
11303;SDS011;5707;49.588;12.148;2023-04-15T08:07:28;1.00;;;1.00;;
11303;SDS011;5707;49.588;12.148;2023-04-15T08:09:54;1.10;;;1.10;;
11303;SDS011;5707;49.588;12.148;2023-04-15T08:12:19;1.48;;;1.00;;
11303;SDS011;5707;49.588;12.148;2023-04-15T08:14:45;0.75;;;0.75;;
11303;SDS011;5707;49.588;12.148;2023-04-15T08:17:11;1.20;;;1.20;;
11303;SDS011;5707;49.588;12.148;2023-04-15T08:19:37;0.77;;;0.77;;
11303;SDS011;5707;49.588;12.148;2023-04-15T08:22:02;1.02;;;1.02;;
11303;SDS011;5707;49.588;12.148;2023-04-15T08:24:28;1.00;;;1.00;;
11303;SDS011;5707;49.588;12.148;2023-04-15T08:26:55;1.00;;;1.00;;
11303;SDS011;5707;49.588;12.148;2023-04-15T08:29:21;1.10;;;1.10;;
11303;SDS011;5707;49.588;12.148;2023-04-15T08:31:47;0.90;;;0.90;;
11303;SDS011;5707;49.588;12.148;2023-04-15T08:34:13;1.00;;;1.00;;
11303;SDS011;5707;49.588;12.148;2023-04-15T08:36:39;1.15;;;1.15;;
11303;SDS011;5707;49.588;12.148;2023-04-15T08:39:05;1.40;;;1.00;;
11303;SDS011;5707;49.588;12.148;2023-04-15T08:41:33;1.40;;;1.30;;
11303;SDS011;5707;49.588;12.148;2023-04-15T08:44:20;0.80;;;0.80;;
11303;SDS011;5707;49.588;12.148;2023-04-15T08:46:47;1.38;;;1.23;;
11303;SDS011;5707;49.588;12.148;2023-04-15T08:49:14;1.60;;;0.88;;
11303;SDS011;5707;49.588;12.148;2023-04-15T08:51:41;1.27;;;1.17;;
11303;SDS011;5707;49.588;12.148;2023-04-15T08:54:08;0.90;;;0.90;;
11303;SDS011;5707;49.588;12.148;2023-04-15T08:56:35;1.45;;;1.35;;
11303;SDS011;5707;49.588;12.148;2023-04-15T08:59:03;1.10;;;1.10;;
11303;SDS011;5707;49.588;12.148;2023-04-15T09:01:29;1.23;;;1.23;;
11303;SDS011;5707;49.588;12.148;2023-04-15T09:03:56;1.00;;;1.00;;
11303;SDS011;5707;49.588;12.148;2023-04-15T09:06:22;2.25;;;1.05;;
11303;SDS011;5707;49.588;12.148;2023-04-15T09:08:49;1.23;;;1.23;;
11303;SDS011;5707;49.588;12.148;2023-04-15T09:11:16;1.58;;;1.48;;
11303;SDS011;5707;49.588;12.148;2023-04-15T09:13:42;0.90;;;0.90;;
11303;SDS011;5707;49.588;12.148;2023-04-15T09:16:07;0.90;;;0.90;;
11303;SDS011;5707;49.588;12.148;2023-04-15T09:18:33;0.50;;;0.50;;
11303;SDS011;5707;49.588;12.148;2023-04-15T09:21:04;0.60;;;0.60;;
11303;SDS011;5707;49.588;12.148;2023-04-15T09:23:32;0.57;;;0.57;;
11303;SDS011;5707;49.588;12.148;2023-04-15T09:25:58;0.40;;;0.40;;
11303;SDS011;5707;49.588;12.148;2023-04-15T09:28:25;0.40;;;0.40;;
11303;SDS011;5707;49.588;12.148;2023-04-15T09:30:54;0.60;;;0.60;;
11303;SDS011;5707;49.588;12.148;2023-04-15T09:33:21;0.50;;;0.50;;
11303;SDS011;5707;49.588;12.148;2023-04-15T09:39:02;0.70;;;0.50;;
11303;SDS011;5707;49.588;12.148;2023-04-15T09:41:27;0.40;;;0.40;;
11303;SDS011;5707;49.588;12.148;2023-04-15T09:43:53;0.38;;;0.38;;
11303;SDS011;5707;49.588;12.148;2023-04-15T09:46:18;2.00;;;0.55;;
11303;SDS011;5707;49.588;12.148;2023-04-15T09:48:44;0.40;;;0.40;;
11303;SDS011;5707;49.588;12.148;2023-04-15T09:51:10;0.68;;;0.68;;
11303;SDS011;5707;49.588;12.148;2023-04-15T09:53:36;0.40;;;0.40;;
11303;SDS011;5707;49.588;12.148;2023-04-15T09:56:04;0.60;;;0.60;;
11303;SDS011;5707;49.588;12.148;2023-04-15T09:58:33;0.50;;;0.50;;
11303;SDS011;5707;49.588;12.148;2023-04-15T10:01:01;0.80;;;0.80;;
11303;SDS011;5707;49.588;12.148;2023-04-15T10:03:29;0.80;;;0.80;;
11303;SDS011;5707;49.588;12.148;2023-04-15T10:06:00;0.80;;;0.80;;
11303;SDS011;5707;49.588;12.148;2023-04-15T10:08:30;0.95;;;0.90;;
11303;SDS011;5707;49.588;12.148;2023-04-15T10:10:57;0.90;;;0.90;;
11303;SDS011;5707;49.588;12.148;2023-04-15T10:13:23;1.00;;;1.00;;
11303;SDS011;5707;49.588;12.148;2023-04-15T10:15:54;0.98;;;0.90;;
11303;SDS011;5707;49.588;12.148;2023-04-15T10:18:22;0.80;;;0.80;;
11303;SDS011;5707;49.588;12.148;2023-04-15T10:20:50;1.02;;;1.02;;
11303;SDS011;5707;49.588;12.148;2023-04-15T10:23:17;0.88;;;0.88;;
11303;SDS011;5707;49.588;12.148;2023-04-15T10:25:45;0.90;;;0.90;;
11303;SDS011;5707;49.588;12.148;2023-04-15T10:28:11;1.00;;;1.00;;
11303;SDS011;5707;49.588;12.148;2023-04-15T10:30:38;0.85;;;0.85;;
11303;SDS011;5707;49.588;12.148;2023-04-15T10:33:04;0.90;;;0.80;;
11303;SDS011;5707;49.588;12.148;2023-04-15T10:35:31;0.88;;;0.88;;
11303;SDS011;5707;49.588;12.148;2023-04-15T10:37:58;0.90;;;0.70;;
11303;SDS011;5707;49.588;12.148;2023-04-15T10:42:55;0.90;;;0.90;;
11303;SDS011;5707;49.588;12.148;2023-04-15T10:45:24;1.67;;;1.00;;
11303;SDS011;5707;49.588;12.148;2023-04-15T10:47:53;1.52;;;1.00;;
11303;SDS011;5707;49.588;12.148;2023-04-15T10:50:20;1.20;;;1.08;;
11303;SDS011;5707;49.588;12.148;2023-04-15T10:52:49;0.90;;;0.90;;
11303;SDS011;5707;49.588;12.148;2023-04-15T10:55:19;1.20;;;1.10;;
11303;SDS011;5707;49.588;12.148;2023-04-15T10:57:45;1.00;;;1.00;;
11303;SDS011;5707;49.588;12.148;2023-04-15T11:00:11;1.33;;;1.23;;
11303;SDS011;5707;49.588;12.148;2023-04-15T11:02:45;1.08;;;1.08;;
11303;SDS011;5707;49.588;12.148;2023-04-15T11:08:06;0.90;;;0.90;;
11303;SDS011;5707;49.588;12.148;2023-04-15T11:12:59;1.30;;;1.20;;
11303;SDS011;5707;49.588;12.148;2023-04-15T11:15:32;1.05;;;1.05;;
11303;SDS011;5707;49.588;12.148;2023-04-15T11:20:36;0.90;;;0.90;;
11303;SDS011;5707;49.588;12.148;2023-04-15T11:23:03;1.40;;;1.30;;
11303;SDS011;5707;49.588;12.148;2023-04-15T11:25:29;1.10;;;1.10;;
11303;SDS011;5707;49.588;12.148;2023-04-15T11:27:58;1.30;;;1.25;;
11303;SDS011;5707;49.588;12.148;2023-04-15T11:30:26;1.15;;;1.05;;
11303;SDS011;5707;49.588;12.148;2023-04-15T11:32:53;1.30;;;1.20;;
11303;SDS011;5707;49.588;12.148;2023-04-15T11:35:22;1.10;;;1.10;;
11303;SDS011;5707;49.588;12.148;2023-04-15T11:37:47;1.17;;;1.17;;
11303;SDS011;5707;49.588;12.148;2023-04-15T11:40:14;1.17;;;1.17;;
11303;SDS011;5707;49.588;12.148;2023-04-15T11:45:32;1.40;;;1.30;;
11303;SDS011;5707;49.588;12.148;2023-04-15T11:48:08;1.10;;;1.10;;
11303;SDS011;5707;49.588;12.148;2023-04-15T11:50:36;1.67;;;1.30;;
11303;SDS011;5707;49.588;12.148;2023-04-15T11:53:05;1.70;;;1.48;;
11303;SDS011;5707;49.588;12.148;2023-04-15T11:58:14;1.40;;;1.30;;
11303;SDS011;5707;49.588;12.148;2023-04-15T12:00:53;1.33;;;1.30;;
11303;SDS011;5707;49.588;12.148;2023-04-15T12:03:28;1.70;;;1.48;;
11303;SDS011;5707;49.588;12.148;2023-04-15T12:11:17;1.50;;;1.40;;
11303;SDS011;5707;49.588;12.148;2023-04-15T12:13:47;1.00;;;1.00;;
11303;SDS011;5707;49.588;12.148;2023-04-15T12:16:17;1.25;;;1.23;;
11303;SDS011;5707;49.588;12.148;2023-04-15T12:18:44;1.00;;;1.00;;
11303;SDS011;5707;49.588;12.148;2023-04-15T12:21:20;1.40;;;1.30;;
11303;SDS011;5707;49.588;12.148;2023-04-15T12:23:50;1.20;;;1.20;;
11303;SDS011;5707;49.588;12.148;2023-04-15T12:26:24;1.80;;;1.23;;
11303;SDS011;5707;49.588;12.148;2023-04-15T12:29:01;1.60;;;1.50;;
11303;SDS011;5707;49.588;12.148;2023-04-15T12:31:35;1.40;;;1.30;;
11303;SDS011;5707;49.588;12.148;2023-04-15T12:34:01;1.80;;;1.70;;
11303;SDS011;5707;49.588;12.148;2023-04-15T12:36:29;1.30;;;1.30;;
11303;SDS011;5707;49.588;12.148;2023-04-15T12:39:00;1.45;;;1.35;;
11303;SDS011;5707;49.588;12.148;2023-04-15T12:41:30;1.83;;;1.73;;
11303;SDS011;5707;49.588;12.148;2023-04-15T12:43:56;1.52;;;1.50;;
11303;SDS011;5707;49.588;12.148;2023-04-15T12:46:22;1.23;;;1.23;;
11303;SDS011;5707;49.588;12.148;2023-04-15T12:48:48;1.40;;;1.30;;
11303;SDS011;5707;49.588;12.148;2023-04-15T12:51:15;1.50;;;1.40;;
11303;SDS011;5707;49.588;12.148;2023-04-15T12:53:41;1.80;;;1.70;;
11303;SDS011;5707;49.588;12.148;2023-04-15T12:56:07;1.55;;;1.45;;
11303;SDS011;5707;49.588;12.148;2023-04-15T12:58:32;1.10;;;1.10;;
11303;SDS011;5707;49.588;12.148;2023-04-15T13:00:58;2.03;;;1.70;;
11303;SDS011;5707;49.588;12.148;2023-04-15T13:03:23;1.25;;;1.25;;
11303;SDS011;5707;49.588;12.148;2023-04-15T13:05:49;1.15;;;1.15;;
11303;SDS011;5707;49.588;12.148;2023-04-15T13:08:15;1.40;;;1.30;;
11303;SDS011;5707;49.588;12.148;2023-04-15T13:10:40;1.60;;;1.50;;
11303;SDS011;5707;49.588;12.148;2023-04-15T13:13:06;1.60;;;1.50;;
11303;SDS011;5707;49.588;12.148;2023-04-15T13:15:32;1.60;;;1.50;;
11303;SDS011;5707;49.588;12.148;2023-04-15T13:17:58;1.23;;;1.13;;
11303;SDS011;5707;49.588;12.148;2023-04-15T13:20:24;1.45;;;1.35;;
11303;SDS011;5707;49.588;12.148;2023-04-15T13:22:51;1.60;;;1.50;;
11303;SDS011;5707;49.588;12.148;2023-04-15T13:25:17;1.52;;;1.30;;
11303;SDS011;5707;49.588;12.148;2023-04-15T13:27:42;2.35;;;2.15;;
11303;SDS011;5707;49.588;12.148;2023-04-15T13:30:08;1.77;;;1.67;;
11303;SDS011;5707;49.588;12.148;2023-04-15T13:32:34;1.85;;;1.70;;
11303;SDS011;5707;49.588;12.148;2023-04-15T13:34:59;1.80;;;1.70;;
11303;SDS011;5707;49.588;12.148;2023-04-15T13:37:28;1.80;;;1.70;;
11303;SDS011;5707;49.588;12.148;2023-04-15T13:39:55;2.03;;;1.77;;
11303;SDS011;5707;49.588;12.148;2023-04-15T13:42:21;1.73;;;1.63;;
11303;SDS011;5707;49.588;12.148;2023-04-15T13:44:50;1.63;;;1.52;;
11303;SDS011;5707;49.588;12.148;2023-04-15T13:47:17;1.58;;;1.48;;
11303;SDS011;5707;49.588;12.148;2023-04-15T13:49:43;2.00;;;1.90;;
11303;SDS011;5707;49.588;12.148;2023-04-15T13:52:09;2.20;;;2.10;;
11303;SDS011;5707;49.588;12.148;2023-04-15T13:54:35;2.30;;;2.20;;
11303;SDS011;5707;49.588;12.148;2023-04-15T13:57:01;2.00;;;1.90;;
11303;SDS011;5707;49.588;12.148;2023-04-15T13:59:26;1.95;;;1.85;;
11303;SDS011;5707;49.588;12.148;2023-04-15T14:01:52;1.77;;;1.67;;
11303;SDS011;5707;49.588;12.148;2023-04-15T14:04:18;1.95;;;1.85;;
11303;SDS011;5707;49.588;12.148;2023-04-15T14:06:43;2.20;;;2.10;;
11303;SDS011;5707;49.588;12.148;2023-04-15T14:09:09;2.10;;;2.00;;
11303;SDS011;5707;49.588;12.148;2023-04-15T14:11:36;2.40;;;2.20;;
11303;SDS011;5707;49.588;12.148;2023-04-15T14:14:03;2.30;;;2.10;;
11303;SDS011;5707;49.588;12.148;2023-04-15T14:16:29;1.98;;;1.88;;
11303;SDS011;5707;49.588;12.148;2023-04-15T14:18:57;2.47;;;2.25;;
11303;SDS011;5707;49.588;12.148;2023-04-15T14:21:23;2.35;;;2.25;;
11303;SDS011;5707;49.588;12.148;2023-04-15T14:23:49;2.58;;;2.30;;
11303;SDS011;5707;49.588;12.148;2023-04-15T14:26:14;2.60;;;2.40;;
11303;SDS011;5707;49.588;12.148;2023-04-15T14:28:40;2.28;;;2.13;;
11303;SDS011;5707;49.588;12.148;2023-04-15T14:31:06;2.55;;;2.35;;
11303;SDS011;5707;49.588;12.148;2023-04-15T14:33:32;2.42;;;2.22;;
11303;SDS011;5707;49.588;12.148;2023-04-15T14:35:57;2.50;;;2.30;;
11303;SDS011;5707;49.588;12.148;2023-04-15T14:38:23;2.40;;;2.22;;
11303;SDS011;5707;49.588;12.148;2023-04-15T14:40:49;3.33;;;2.47;;
11303;SDS011;5707;49.588;12.148;2023-04-15T14:43:14;3.70;;;2.90;;
11303;SDS011;5707;49.588;12.148;2023-04-15T14:45:40;2.20;;;2.10;;
11303;SDS011;5707;49.588;12.148;2023-04-15T14:48:05;2.38;;;2.17;;
11303;SDS011;5707;49.588;12.148;2023-04-15T14:50:33;2.20;;;2.10;;
11303;SDS011;5707;49.588;12.148;2023-04-15T14:52:59;1.88;;;1.77;;
11303;SDS011;5707;49.588;12.148;2023-04-15T14:55:25;2.03;;;1.92;;
11303;SDS011;5707;49.588;12.148;2023-04-15T14:57:51;1.90;;;1.80;;
11303;SDS011;5707;49.588;12.148;2023-04-15T15:00:16;1.88;;;1.77;;
11303;SDS011;5707;49.588;12.148;2023-04-15T15:02:42;1.90;;;1.80;;
11303;SDS011;5707;49.588;12.148;2023-04-15T15:05:08;1.73;;;1.63;;
11303;SDS011;5707;49.588;12.148;2023-04-15T15:07:34;1.55;;;1.45;;